首页
METAR-TAF:

METAR-TAF

机场 :

吉隆坡, 马来西亚

吉隆坡国际机场

纬度: 02-44N, 经度: 101-42E, 海拔: 21米

当前天气观测

该预报发布于23分钟前的22:00 UTC
风速4节,风向北转西北,在西转西北北转东北之间变化
温度 26°C
湿度 84%
气压 1008 hPa
能见度10公里或以上
少量云层高于1700英尺, 积雨云.
散云层高于14000英尺
多云层高于28000英尺

METAR: WMKK 252200Z 34004KT 290V030 9999 FEW017CB SCT140 BKN280 26/23 Q1008 NOSIG

时间: 06:23 (22:23 UTC)

预报

该预报发布于5小时和23分钟前的17:00 UTC
预报有效从25日的 18点(UTC)到 27日的 00点(UTC)
风速5节,风向西转西北
能见度10公里或以上
少量云层高于1700英尺, 积雨云.
散云层高于2000英尺
短暂存在
从 25日的 18点(UTC)到 25日的 22点(UTC)
风速10节,风向东转东南
能見度: 3000
少量云层高于1500英尺, 积雨云.
散云层高于1800英尺
雷暴, 雨

TAF: WMKK 251700Z 2518/2700 30005KT 9999 FEW017CB SCT020 TEMPO 2518/2522 12010KT 3000 TSRA FEW015CB SCT018

超过4000个机场的气象观测和天气预报(METAR&TAF报告)。

可查询的气象台以黄色和红色小点在地图上表示。

将鼠标移到小点上方,可查看气象台名称。

然后点击查看天气观测和预报。

如需切换地图:点击带黑十字的绿色按钮放大地图;点击带横线的绿色按钮缩小地图;或者点击绿色箭头查看邻近地区的地图。


METAR-TAF: